Tulsa, Oklahoma
Current Conditions -  °F | °C
As of 9:10 PM on Saturday 22 Nov 2014 (Local Time) from KTUL Reporting Station
Overcast Overcast  
Wind Chill: 13°   Ceiling: 19000
Heat Index: 13°   Visibility: 10mi
Dew Point: 12°   Wind: 15mph
Humidity: 93%   Direction: 150°SSE
Pressure: 29.74"   Gusts: NA
Location:  36.15°N, 95.99°W
Report Text: KTUL 230310Z 15013KT 10SM FEW009 OVC190 13/12 A2974 RMK AO2 T01330122
Loading
Personal Weather Stations






























Interactive Weather Map New forecast layout! Learn more

10-Day Weather Forecast

Advertisements
Track Severe Weather on mobile